Address 0xa85a4eef551e083b2350a20994fd5816583cae3b

Overview

Balance:
4.469364771772671225 AVAX

AVAX Value:
$140.92 (@ $31.53/AVAX)

Token:
Txn Hash Method
Block
From
To
Value [Txn Fee]
0x9274e20a5637d6658492821352d8ca0bb38de6054cd6caca9b7a87825d2d02350x6bf2df86150664252022-05-23 9:12:1939 secs ago0xa85a4eef551e083b2350a20994fd5816583cae3bOUT 0xc4729e56b831d74bbc18797e0e17a295fa77488c0 AVAX0.004726514 26
0xb0a02261426c1f864cf2e1b10df273ad4005e5918e71b1e994d6f9ade92968dc0x6bf2df86150653502022-05-23 8:35:5037 mins ago0xa85a4eef551e083b2350a20994fd5816583cae3bOUT 0xc4729e56b831d74bbc18797e0e17a295fa77488c0 AVAX0.008647262 26
0xa13a152f58c7d415fc3880811801e22bb96950fc293140e44a1276815fcc60ee0x6bf2df86150648912022-05-23 8:20:1152 mins ago0xa85a4eef551e083b2350a20994fd5816583cae3bOUT 0xc4729e56b831d74bbc18797e0e17a295fa77488c0 AVAX0.011168482 26
0x2a8b5e6ef365c540755e9b1928c399b51cd25202a731505bf49df79a2a6b10d30x6bf2df86150647702022-05-23 8:16:0256 mins ago0xa85a4eef551e083b2350a20994fd5816583cae3bOUT 0xc4729e56b831d74bbc18797e0e17a295fa77488c0 AVAX0.008267584 26
0x720dc516bb204f3e092b0216d83ec27056c5793779330c35112a7208dca86a8a0x6bf2df86150647572022-05-23 8:15:3857 mins ago0xa85a4eef551e083b2350a20994fd5816583cae3bOUT 0xc4729e56b831d74bbc18797e0e17a295fa77488c0 AVAX0.008888906 26
0x578cc93b91db81167c1a3777b5363faa2210463a00550f66d8fe348e20555bd60x6bf2df86150646612022-05-23 8:12:261 hr ago0xa85a4eef551e083b2350a20994fd5816583cae3bOUT 0xc4729e56b831d74bbc18797e0e17a295fa77488c0 AVAX0.008257236 26
0x539b12cee4cb27fa278ca5df1ccff07ff6025c1f7516df9e62fe73afb64255320x6bf2df86150641362022-05-23 7:54:411 hr 18 mins ago0xa85a4eef551e083b2350a20994fd5816583cae3bOUT 0xc4729e56b831d74bbc18797e0e17a295fa77488c0 AVAX0.004477824 26
0x9d35f733d5f558e8ec8d4bf62634c87ec87d858259d9835d32c7e0387c36d9b00x6bf2df86150639482022-05-23 7:48:181 hr 24 mins ago0xa85a4eef551e083b2350a20994fd5816583cae3bOUT 0xc4729e56b831d74bbc18797e0e17a295fa77488c0 AVAX0.00885391 26
0x4bf494d2265b583aa1811dac20884f5e8639597be0f2fe4cb469318a36f0a2400x6bf2df86150638732022-05-23 7:45:481 hr 27 mins ago0xa85a4eef551e083b2350a20994fd5816583cae3bOUT 0xc4729e56b831d74bbc18797e0e17a295fa77488c0 AVAX0.01489657 26
0xbeabeee921468b6f5266393af3b65e31f4924a5ad6a6a93dbc57966664210c6a0x6bf2df86150638712022-05-23 7:45:441 hr 27 mins ago0xa85a4eef551e083b2350a20994fd5816583cae3bOUT 0xc4729e56b831d74bbc18797e0e17a295fa77488c0 AVAX0.021066916 26
0xcb6f1f8ffe164dcb8788bb2306f123cbd4a16466b111b25381f991b242a7518b0x6bf2df86150638132022-05-23 7:43:411 hr 29 mins ago0xa85a4eef551e083b2350a20994fd5816583cae3bOUT 0xc4729e56b831d74bbc18797e0e17a295fa77488c0 AVAX0.014898 26
0x17e8fc247b16b504fbf3087a3afc15c0db0fad8ed35ad9523cbe294e4a29703c0x6bf2df86150632442022-05-23 7:24:091 hr 48 mins ago0xa85a4eef551e083b2350a20994fd5816583cae3bOUT 0xc4729e56b831d74bbc18797e0e17a295fa77488c0 AVAX0.011825476 26
0xdcbd35c59251dab83a9b50b98ff7725864841389288e50551981cf0faca79e9f0x6bf2df86150625372022-05-23 7:00:092 hrs 12 mins ago0xa85a4eef551e083b2350a20994fd5816583cae3bOUT 0xc4729e56b831d74bbc18797e0e17a295fa77488c0 AVAX0.011788894 26
0xfe5064f68f562dc65dce8e5f22a45674227122cfe299d558fb6e8720b153d1d20x6bf2df86150625332022-05-23 7:00:012 hrs 12 mins ago0xa85a4eef551e083b2350a20994fd5816583cae3bOUT 0xc4729e56b831d74bbc18797e0e17a295fa77488c0 AVAX0.016972436 26
0x7a05b9825f51846ea709fb5fc728ebc5d216d1e3423a63264eeda2e63cdc297f0x6bf2df86150566482022-05-23 3:42:025 hrs 30 mins ago0xa85a4eef551e083b2350a20994fd5816583cae3bOUT 0xc4729e56b831d74bbc18797e0e17a295fa77488c0 AVAX0.01038844989 40.11
0xc952b53c54e88fd08a82956621518ede9e5e1cb925a039ba284d76551e4026bf0x6bf2df86150566482022-05-23 3:42:025 hrs 30 mins ago0xa85a4eef551e083b2350a20994fd5816583cae3bOUT 0xc4729e56b831d74bbc18797e0e17a295fa77488c0 AVAX0.007673978 26
0x287e202a5632cdd322b3db6e118a9544ae7823601c386e736848613bc691b8adTransfer150566462022-05-23 3:41:585 hrs 31 mins ago0xa85a4eef551e083b2350a20994fd5816583cae3bSELF0xa85a4eef551e083b2350a20994fd5816583cae3b0 AVAX0.000649656 30.936000001
0xb53ca7ed2ffad2c51857ab0a1a2146a7b816d16a2d4b07ba7c6a8578dda4cf17Transfer150565732022-05-23 3:39:335 hrs 33 mins ago0xa85a4eef551e083b2350a20994fd5816583cae3bSELF0xa85a4eef551e083b2350a20994fd5816583cae3b0 AVAX0.00054852 26.12
0x7e5d5d9842c886c1690dc1cd6080a07fe783cc5cd9ea3504cfe97e0d920a33660x6bf2df86150565472022-05-23 3:38:415 hrs 34 mins ago0xa85a4eef551e083b2350a20994fd5816583cae3bOUT 0xc4729e56b831d74bbc18797e0e17a295fa77488c0 AVAX0.02105961 26
0x8c4dd0a4864bc3a86efa63aeab7cc44b1ff9d2f87655b24550fb605fafcf4aa20x6bf2df86150565452022-05-23 3:38:375 hrs 34 mins ago0xa85a4eef551e083b2350a20994fd5816583cae3bOUT 0xc4729e56b831d74bbc18797e0e17a295fa77488c0 AVAX0.014790178 26
0x6c3e360f3cba91905116c562fd3f2b81dd61730f0a6123e48ca5ec6e5009ac970x6bf2df86150565412022-05-23 3:38:295 hrs 34 mins ago0xa85a4eef551e083b2350a20994fd5816583cae3bOUT 0xc4729e56b831d74bbc18797e0e17a295fa77488c0 AVAX0.02105961 26
0x0a39edfbc7711b7ecfa22b97d339649e35ae064e399b3be7697e70db8970a0ca0x6bf2df86150565392022-05-23 3:38:255 hrs 34 mins ago0xa85a4eef551e083b2350a20994fd5816583cae3bOUT 0xc4729e56b831d74bbc18797e0e17a295fa77488c0 AVAX0.02105961 26
0xcb56e00666e553f368409c96498462196eb5df5fa2acca585562f4b572dd5fbf0x6bf2df86150565372022-05-23 3:38:215 hrs 34 mins ago0xa85a4eef551e083b2350a20994fd5816583cae3bOUT 0xc4729e56b831d74bbc18797e0e17a295fa77488c0 AVAX0.02105961 26
0x0d2142908cd725fda090002eff144d874f7fe3ad8abb30203b0fff87c41246520x6bf2df86150565352022-05-23 3:38:175 hrs 34 mins ago0xa85a4eef551e083b2350a20994fd5816583cae3bOUT 0xc4729e56b831d74bbc18797e0e17a295fa77488c0 AVAX0.02105961 26
0x72cd84282ed110de57e771780d368620170919ca99711ecdac34bca6f6d595490x6bf2df86150565322022-05-23 3:38:115 hrs 34 mins ago0xa85a4eef551e083b2350a20994fd5816583cae3bOUT 0xc4729e56b831d74bbc18797e0e17a295fa77488c0 AVAX0.02105961 26
[ Download CSV Export 
Latest 7 internal transactions
Parent Txn Hash Block From To Value
0x0d90ada3c201535321df861c57582d37b088886952f863e09a27cddf1e0175d3149966172022-05-21 18:14:091 day 14 hrs ago Wrapped AVAX0xa85a4eef551e083b2350a20994fd5816583cae3b10 AVAX
0x7f50bdd0e194fd0e7b44511fa976dd8a0e6e160b988dfd878ae7ddaa204d67bc149206412022-05-20 0:01:543 days 9 hrs ago Wrapped AVAX0xa85a4eef551e083b2350a20994fd5816583cae3b10 AVAX
0x7288099f2d886ce7c597dbb36f169d9f2b011d7bd686ca2a0163adca27071e54148803482022-05-19 1:43:374 days 7 hrs ago Wrapped AVAX0xa85a4eef551e083b2350a20994fd5816583cae3b10 AVAX
0x5ade6cc2c2a428a486fe08137e61e003c8f8056b146fe3a25a0404cc25aa6085148257002022-05-17 19:05:325 days 14 hrs ago Wrapped AVAX0xa85a4eef551e083b2350a20994fd5816583cae3b10 AVAX
0x39ec7e9154fdbfda1efa9ad514067474dd0d94c21c57aa86401d5b402af8ffbd147861362022-05-16 21:03:476 days 12 hrs ago Wrapped AVAX0xa85a4eef551e083b2350a20994fd5816583cae3b10 AVAX
0x0a78f5548b79e9bc5382aa9e3cd86c4b997ea51d9c99217e23e897f16bc0e36b147410662022-05-15 20:01:317 days 13 hrs ago Wrapped AVAX0xa85a4eef551e083b2350a20994fd5816583cae3b10 AVAX
0x15acdd015c4d0ffa1ee64681746b4d6674104c61903552362f16aa4c9a08e078146872722022-05-14 14:06:188 days 19 hrs ago Wrapped AVAX0xa85a4eef551e083b2350a20994fd5816583cae3b10 AVAX
[ Download CSV Export 
Loading

Contract Name:
0

Compiler Version
0

Optimization Enabled:
0

Other Settings:
-NA-
Block Transaction Gas Used Reward
Age Block Fee Address BC Fee Address Voting Power Jailed Incoming
Block Uncle Number Difficulty Gas Used Reward
Loading
Make sure to use the "Vote Down" button for any spammy posts, and the "Vote Up" for interesting conversations.